Terminal Aerodrome Forecast
Issued by NWS

Home | Current Version | Previous Version | Graphics & Text | Print | Product List | Glossary On
Versions: 1 2 3 4 5 6 7 8 9 10 11 12 13 14 15
037
FTUS43 KPAH 221120
TAFCGI
TAF
KCGI 221120Z 2212/2312 16015G25KT P6SM -SHRA VCTS BKN040CB BKN070
      TEMPO 2212/2216 5SM -SHRA BR OVC020
     FM221600 17015G24KT 5SM -SHRA BR VCTS OVC025CB
     FM221800 23009KT 6SM -SHRA BR OVC025
     FM230300 34009KT P6SM SCT015 OVC030=

USA.gov is the U.S. government's official web portal to all federal, state and local government web resources and services.